Terminal Aerodrome Forecast
Issued by NWS Houston/Galveston TX

Home | Current Version | Previous Version | Text Only | Print | Product List | Glossary On
Versions: 1 2 3 4 5 6 7 8 9 10 11 12 13 14 15 16 17 18 19 20 21 22 23 24 25 26 27 28 29 30 31 32 33 34 35 36 37 38 39 40 41 42 43 44 45 46 47 48 49 50
953
FTUS44 KHGX 310325 AAA
TAFHOU
TAF AMD
KHOU 310325Z 3103/3124 18004KT P6SM SKC
     FM311200 VRB03KT P6SM FEW025
     FM311600 21006KT P6SM SCT040
     FM312000 16008KT P6SM VCTS SCT050CB BKN250 PROB30 3120/3122
      VRB10G20KT TSRA=

USA.gov is the U.S. government's official web portal to all federal, state and local government web resources and services.